Time;durP1;ratioP1;P1;durP2;ratioP2;P2;SDS_P1;SDS_P2;PMS_P1;PMS_P2;Temp;Humidity;BMP_temperature;BMP_pressure;BME280_temperature;BME280_humidity;BME280_pressure;Samples;Min_cycle;Max_cycle;Signal;HPM_P1;HPM_P2
2022/09/29 00:01:43;;;;;;;0.50;0.50;;;10.00;99.90;10.30;99749.00;;;;5035335;28;20666;-68
2022/09/29 00:04:13;;;;;;;0.50;0.50;;;9.80;99.90;9.80;99751.00;;;;5034559;28;20578;-68
2022/09/29 00:06:44;;;;;;;0.70;0.70;;;9.70;99.90;9.80;99753.00;;;;5034791;28;20202;-68
2022/09/29 00:09:16;;;;;;;0.80;0.80;;;9.60;99.90;9.90;99738.00;;;;5034363;28;20215;-67
2022/09/29 00:11:47;;;;;;;0.50;0.50;;;9.50;99.90;9.80;99743.00;;;;5035465;28;20207;-68
2022/09/29 00:14:12;;;;;;;0.50;0.50;;;9.50;99.90;9.60;99752.00;;;;5035162;28;20171;-68
2022/09/29 00:16:43;;;;;;;0.43;0.43;;;9.40;99.90;9.70;99758.00;;;;5035091;28;20195;-67
2022/09/29 00:19:15;;;;;;;0.40;0.40;;;9.30;99.90;9.90;99760.00;;;;5035270;28;20241;-66
2022/09/29 00:21:46;;;;;;;0.40;0.40;;;9.40;99.90;10.00;99735.00;;;;5034034;28;20190;-67
2022/09/29 00:24:18;;;;;;;0.50;0.50;;;9.50;99.90;10.60;99754.00;;;;5033820;28;20630;-67
2022/09/29 00:26:50;;;;;;;0.50;0.50;;;9.80;99.90;9.80;99759.00;;;;5034130;28;20265;-67
2022/09/29 00:29:16;;;;;;;0.40;0.40;;;9.80;99.90;9.40;99762.00;;;;5034007;28;20183;-67
2022/09/29 00:31:47;;;;;;;0.40;0.40;;;9.50;99.90;9.40;99765.00;;;;5034825;28;20570;-68
2022/09/29 00:34:21;;;;;;;0.80;0.80;;;9.40;99.90;9.80;99763.00;;;;5034118;28;20183;-67
2022/09/29 00:36:52;;;;;;;1.23;1.13;;;9.60;99.90;9.40;99761.00;;;;5034977;28;20195;-68
2022/09/29 00:39:24;;;;;;;0.77;0.77;;;9.40;99.90;9.80;99746.00;;;;5017225;28;20673;-67
2022/09/29 00:41:56;;;;;;;0.40;0.40;;;9.50;99.90;10.50;99749.00;;;;5033683;28;20776;-68
2022/09/29 00:44:49;;;;;;;0.50;0.50;;;9.70;99.90;10.60;99768.00;;;;5033703;28;20210;-67
2022/09/29 00:47:22;;;;;;;0.50;0.50;;;9.90;99.90;10.80;99719.00;;;;5034590;28;20198;-68
2022/09/29 00:50:21;;;;;;;0.70;0.70;;;10.00;99.90;10.40;99755.00;;;;5033713;28;20179;-67
2022/09/29 00:52:56;;;;;;;0.60;0.60;;;10.00;99.90;10.10;99752.00;;;;5017089;28;20362;-67
2022/09/29 00:55:35;;;;;;;0.40;0.40;;;9.90;99.90;10.20;99746.00;;;;5032734;28;20237;-67
2022/09/29 00:58:32;;;;;;;5.07;4.77;;;9.70;99.90;10.30;99748.00;;;;5017194;28;20199;-68
2022/09/29 01:00:58;;;;;;;0.47;0.47;;;9.90;99.90;10.50;99749.00;;;;5033476;28;20183;-68
2022/09/29 01:03:33;;;;;;;0.90;0.90;;;10.00;99.90;10.40;99748.00;;;;5033297;28;20650;-68
2022/09/29 01:06:09;;;;;;;0.50;0.50;;;9.90;99.90;10.40;99748.00;;;;5032966;28;20189;-68
2022/09/29 01:09:00;;;;;;;0.80;0.80;;;9.90;99.90;10.70;99745.00;;;;5032758;28;20265;-68
2022/09/29 01:11:32;;;;;;;0.50;0.50;;;10.10;99.90;10.60;99736.00;;;;5033357;28;20199;-68
2022/09/29 01:14:06;;;;;;;0.80;0.80;;;10.20;99.90;9.90;99743.00;;;;5032762;28;20179;-67
2022/09/29 01:16:38;;;;;;;0.40;0.40;;;9.80;99.90;9.90;99739.00;;;;5033242;28;20321;-68
2022/09/29 01:19:18;;;;;;;0.40;0.40;;;9.60;99.90;9.70;99741.00;;;;5033112;28;20182;-68
2022/09/29 01:22:30;;;;;;;0.40;0.40;;;9.70;99.90;9.70;99743.00;;;;5033482;28;20329;-68
2022/09/29 01:25:08;;;;;;;0.40;0.40;;;9.50;99.90;10.40;99691.00;;;;5033304;28;20510;-68
2022/09/29 01:28:07;;;;;;;0.40;0.40;;;9.60;99.90;10.20;99730.00;;;;5033686;28;20590;-68
2022/09/29 01:31:07;;;;;;;0.40;0.40;;;9.60;99.90;10.40;99731.00;;;;5034071;28;20242;-67
2022/09/29 01:33:59;;;;;;;0.50;0.50;;;9.60;99.90;10.20;99724.00;;;;5032816;28;20187;-68
2022/09/29 01:36:57;;;;;;;0.70;0.70;;;9.60;99.90;10.10;99730.00;;;;5032802;28;20190;-67
2022/09/29 01:39:55;;;;;;;0.50;0.50;;;9.50;99.90;9.80;99730.00;;;;4991075;28;20223;-68
2022/09/29 01:42:35;;;;;;;0.50;0.50;;;9.50;99.90;10.00;99729.00;;;;5032272;28;20269;-68
2022/09/29 01:45:20;;;;;;;0.50;0.50;;;9.40;99.90;10.00;99735.00;;;;5033077;28;20201;-68
2022/09/29 01:47:57;;;;;;;0.70;0.70;;;9.40;99.90;10.40;99735.00;;;;5032820;28;20654;-68
2022/09/29 01:50:32;;;;;;;3.23;3.03;;;9.60;99.90;10.20;99736.00;;;;5032635;28;20627;-67
2022/09/29 01:53:11;;;;;;;1.63;1.63;;;9.60;99.90;9.90;99736.00;;;;5032572;28;20662;-68
2022/09/29 01:55:49;;;;;;;0.73;0.73;;;9.50;99.90;9.80;99742.00;;;;5016191;28;20175;-68
2022/09/29 01:59:11;;;;;;;0.50;0.50;;;9.50;99.90;9.90;99736.00;;;;5032312;28;20225;-67
2022/09/29 02:01:49;;;;;;;0.50;0.50;;;9.40;99.90;9.80;99735.00;;;;5016008;28;20249;-68
2022/09/29 02:04:33;;;;;;;0.50;0.50;;;9.40;99.90;10.10;99695.00;;;;5032342;28;20177;-68
2022/09/29 02:07:15;;;;;;;0.50;0.50;;;9.40;99.90;10.30;99741.00;;;;5032129;28;20187;-67
2022/09/29 02:09:52;;;;;;;0.60;0.60;;;9.60;99.90;10.00;99748.00;;;;5032365;28;20623;-67
2022/09/29 02:12:29;;;;;;;0.57;0.57;;;9.50;99.90;9.70;99740.00;;;;5031989;28;20207;-67
2022/09/29 02:15:06;;;;;;;0.50;0.50;;;9.30;99.90;9.40;99747.00;;;;5015773;28;20254;-67
2022/09/29 02:17:43;;;;;;;0.50;0.50;;;9.20;99.90;10.00;99748.00;;;;5032034;28;20596;-67
2022/09/29 02:20:11;;;;;;;0.57;0.57;;;9.30;99.90;9.70;99743.00;;;;5032308;28;20174;-68
2022/09/29 02:22:38;;;;;;;0.50;0.50;;;9.30;99.90;10.20;99743.00;;;;5032052;28;20653;-67
2022/09/29 02:25:07;;;;;;;0.60;0.60;;;9.40;99.90;9.50;99691.00;;;;5031822;28;20266;-68
2022/09/29 02:27:33;;;;;;;0.60;0.60;;;9.30;99.90;9.60;99737.00;;;;5032046;28;20202;-68
2022/09/29 02:29:59;;;;;;;0.50;0.50;;;9.20;99.90;9.80;99739.00;;;;5015488;28;20209;-67
2022/09/29 02:32:26;;;;;;;0.50;0.50;;;9.20;99.90;9.70;99749.00;;;;5033163;28;20654;-67
2022/09/29 02:34:54;;;;;;;0.60;0.60;;;9.20;99.90;10.20;99741.00;;;;5015626;28;20626;-67
2022/09/29 02:37:39;;;;;;;1.93;1.93;;;9.40;99.90;10.10;99679.00;;;;5032137;28;20179;-67
2022/09/29 02:40:32;;;;;;;0.60;0.60;;;9.40;99.90;10.20;99733.00;;;;5032942;28;20183;-68
2022/09/29 02:43:32;;;;;;;0.67;0.67;;;9.50;99.90;9.90;99737.00;;;;5033403;28;20224;-67
2022/09/29 02:46:05;;;;;;;0.70;0.70;;;9.40;99.90;9.70;99693.00;;;;5031920;28;20175;-68
2022/09/29 02:49:03;;;;;;;0.60;0.60;;;9.30;99.90;9.80;99742.00;;;;5033126;28;20203;-67
2022/09/29 02:51:57;;;;;;;0.70;0.70;;;9.30;99.90;9.10;99700.00;;;;5029819;28;20308;-68
2022/09/29 02:54:58;;;;;;;3.90;3.80;;;9.00;99.90;8.70;99735.00;;;;5015178;28;20183;-67
2022/09/29 02:57:52;;;;;;;0.50;0.50;;;8.70;99.90;8.80;99739.00;;;;5032650;28;20657;-67
2022/09/29 03:00:26;;;;;;;0.50;0.50;;;8.60;99.90;8.80;99731.00;;;;5012484;28;20353;-67
2022/09/29 03:03:00;;;;;;;0.63;0.63;;;8.50;99.90;8.70;99739.00;;;;5049818;28;20187;-68
2022/09/29 03:05:31;;;;;;;0.50;0.50;;;8.50;99.90;8.70;99747.00;;;;5031613;28;20197;-68
2022/09/29 03:08:02;;;;;;;0.50;0.50;;;8.50;99.90;8.80;99734.00;;;;5033163;28;20266;-68
2022/09/29 03:10:31;;;;;;;0.50;0.50;;;8.50;99.90;8.80;99743.00;;;;5031374;28;20266;-67
2022/09/29 03:13:05;;;;;;;0.83;0.83;;;8.50;99.90;9.20;99745.00;;;;5031808;28;20263;-67
2022/09/29 03:15:39;;;;;;;0.50;0.50;;;8.60;99.90;9.00;99741.00;;;;5031567;28;20336;-68
2022/09/29 03:18:07;;;;;;;0.50;0.50;;;8.60;99.90;9.00;99739.00;;;;5033371;28;20166;-68
2022/09/29 03:20:38;;;;;;;0.50;0.50;;;8.60;99.90;8.90;99740.00;;;;5035464;28;20183;-67
2022/09/29 03:23:04;;;;;;;0.53;0.53;;;8.60;99.90;9.00;99731.00;;;;5035315;28;20179;-68
2022/09/29 03:25:30;;;;;;;0.60;0.60;;;8.60;99.90;9.00;99735.00;;;;5051686;28;20243;-68
2022/09/29 03:28:04;;;;;;;1.13;1.13;;;8.50;99.90;8.80;99740.00;;;;5036581;28;20187;-68
2022/09/29 03:30:33;;;;;;;0.50;0.50;;;8.50;99.90;8.80;99742.00;;;;5036153;28;20591;-68
2022/09/29 03:33:04;;;;;;;0.40;0.40;;;8.50;99.90;8.70;99739.00;;;;5036510;28;20294;-68
2022/09/29 03:35:38;;;;;;;0.50;0.50;;;8.40;99.90;8.60;99744.00;;;;5018600;28;20533;-68
2022/09/29 03:38:10;;;;;;;0.50;0.50;;;8.40;99.90;8.60;99755.00;;;;5035468;28;20218;-68
2022/09/29 03:40:46;;;;;;;0.50;0.50;;;8.40;99.90;8.70;99751.00;;;;5036210;28;20182;-68
2022/09/29 03:43:12;;;;;;;0.70;0.70;;;8.40;99.90;9.00;99758.00;;;;5035088;28;20171;-68
2022/09/29 03:45:51;;;;;;;0.50;0.50;;;8.40;99.90;9.30;99720.00;;;;5035857;28;20269;-68
2022/09/29 03:48:30;;;;;;;0.50;0.50;;;8.50;99.90;9.60;99755.00;;;;5035189;28;20171;-67
2022/09/29 03:51:01;;;;;;;0.50;0.50;;;8.80;99.90;9.60;99749.00;;;;5051561;28;20181;-67
2022/09/29 03:53:33;;;;;;;0.50;0.50;;;8.90;99.90;9.40;99695.00;;;;5034740;28;20280;-68
2022/09/29 03:56:02;;;;;;;0.60;0.60;;;8.80;99.90;9.20;99731.00;;;;5018611;28;20643;-67
2022/09/29 03:58:28;;;;;;;0.50;0.50;;;8.70;99.90;9.40;99755.00;;;;5035907;28;20180;-67
2022/09/29 04:01:00;;;;;;;0.50;0.50;;;8.60;99.90;9.10;99753.00;;;;5034904;28;20193;-68
2022/09/29 04:03:27;;;;;;;0.50;0.50;;;8.60;99.90;8.70;99752.00;;;;5036097;28;20177;-67
2022/09/29 04:05:53;;;;;;;0.50;0.50;;;8.40;99.90;8.80;99753.00;;;;5035531;28;20217;-67
2022/09/29 04:08:22;;;;;;;0.50;0.50;;;8.40;99.90;8.30;99751.00;;;;5034442;28;20583;-67
2022/09/29 04:10:53;;;;;;;0.50;0.50;;;8.20;99.90;8.60;99755.00;;;;5034522;28;20595;-68
2022/09/29 04:13:20;;;;;;;0.60;0.60;;;8.20;99.90;9.00;99766.00;;;;5034259;28;20221;-68
2022/09/29 04:15:49;;;;;;;0.50;0.50;;;8.30;99.90;9.20;99767.00;;;;5034340;28;20720;-68
2022/09/29 04:18:23;;;;;;;0.70;0.70;;;8.50;99.90;9.20;99765.00;;;;5035499;28;20232;-67
2022/09/29 04:20:49;;;;;;;0.60;0.60;;;8.60;99.90;8.90;99698.00;;;;5050865;28;20207;-68
2022/09/29 04:23:17;;;;;;;1.07;1.07;;;8.60;99.90;8.50;99758.00;;;;5034163;28;20185;-68
2022/09/29 04:25:48;;;;;;;0.60;0.60;;;8.40;99.90;8.30;99772.00;;;;5035626;28;20269;-68
2022/09/29 04:28:22;;;;;;;0.60;0.60;;;8.10;99.90;8.30;99713.00;;;;5035546;28;20596;-68
2022/09/29 04:30:53;;;;;;;0.53;0.53;;;8.00;99.90;8.20;99775.00;;;;5033983;28;20179;-67
2022/09/29 04:33:19;;;;;;;0.73;0.73;;;8.00;99.90;8.00;99761.00;;;;5050281;28;20678;-68
2022/09/29 04:35:45;;;;;;;0.50;0.50;;;7.90;99.90;8.00;99769.00;;;;5033628;28;20244;-67
2022/09/29 04:38:11;;;;;;;0.50;0.50;;;7.90;99.90;7.90;99770.00;;;;5034066;28;20565;-68
2022/09/29 04:40:42;;;;;;;0.40;0.40;;;7.80;99.90;8.00;99758.00;;;;5033922;28;20265;-68
2022/09/29 04:43:14;;;;;;;0.60;0.60;;;7.80;99.90;8.00;99779.00;;;;5035133;28;20247;-68
2022/09/29 04:45:42;;;;;;;0.50;0.50;;;7.80;99.90;8.10;99776.00;;;;5033864;28;20600;-69
2022/09/29 04:48:13;;;;;;;1.20;1.10;;;7.80;99.90;8.20;99779.00;;;;5050250;28;20179;-68
2022/09/29 04:50:39;;;;;;;0.50;0.50;;;7.90;99.90;8.10;99775.00;;;;5033763;28;20249;-68
2022/09/29 04:53:13;;;;;;;0.70;0.70;;;7.90;99.90;8.40;99777.00;;;;5050140;28;20674;-68
2022/09/29 04:55:46;;;;;;;0.60;0.60;;;7.90;99.90;8.20;99784.00;;;;5033865;28;20177;-68
2022/09/29 04:58:17;;;;;;;0.50;0.50;;;7.90;99.90;8.50;99788.00;;;;5033604;28;20244;-68
2022/09/29 05:00:46;;;;;;;0.60;0.60;;;7.90;99.90;8.30;99782.00;;;;5033445;28;20592;-68
2022/09/29 05:03:17;;;;;;;0.53;0.53;;;8.00;99.90;8.40;99787.00;;;;5034428;28;20249;-69
2022/09/29 05:05:48;;;;;;;0.60;0.60;;;8.00;99.90;8.40;99742.00;;;;5033274;28;20186;-68
2022/09/29 05:08:19;;;;;;;0.60;0.60;;;8.00;99.90;8.20;99785.00;;;;5033205;28;20183;-68
2022/09/29 05:10:51;;;;;;;2.13;2.03;;;8.00;99.90;8.20;99793.00;;;;5034430;28;20184;-68
2022/09/29 05:13:23;;;;;;;0.60;0.60;;;8.00;99.90;7.90;99748.00;;;;5034486;28;20211;-68
2022/09/29 05:15:56;;;;;;;0.60;0.60;;;7.90;99.90;8.10;99809.00;;;;5033184;28;20194;-69
2022/09/29 05:18:27;;;;;;;0.60;0.60;;;7.80;99.90;8.00;99802.00;;;;5033149;28;20193;-68
2022/09/29 05:21:06;;;;;;;2.60;2.50;;;7.80;99.90;7.90;99801.00;;;;5016454;28;20185;-68
2022/09/29 05:23:37;;;;;;;1.20;1.20;;;7.70;99.90;7.80;99803.00;;;;5033438;28;20186;-68
2022/09/29 05:26:07;;;;;;;0.60;0.60;;;7.70;99.90;7.70;99806.00;;;;5033440;28;20181;-68
2022/09/29 05:28:43;;;;;;;0.60;0.60;;;7.60;99.90;7.90;99806.00;;;;5034198;28;20600;-68
2022/09/29 05:31:15;;;;;;;1.57;1.53;;;7.60;99.90;7.80;99762.00;;;;5032870;28;20547;-68
2022/09/29 05:33:46;;;;;;;3.70;3.53;;;7.60;99.90;7.90;99804.00;;;;5032393;28;20186;-68
2022/09/29 05:36:17;;;;;;;0.90;0.90;;;7.60;99.90;7.80;99805.00;;;;5032773;28;20189;-68
2022/09/29 05:38:47;;;;;;;0.73;0.73;;;7.60;99.90;7.80;99746.00;;;;5032905;28;20171;-67
2022/09/29 05:41:21;;;;;;;0.60;0.60;;;7.60;99.90;8.00;99813.00;;;;5031741;28;20195;-67
2022/09/29 05:44:00;;;;;;;0.60;0.60;;;7.60;99.90;7.90;99812.00;;;;5032603;28;20216;-67
2022/09/29 05:46:31;;;;;;;3.30;3.13;;;7.70;99.90;7.90;99798.00;;;;5032899;28;20239;-67
2022/09/29 05:49:02;;;;;;;0.60;0.60;;;7.60;99.90;7.90;99819.00;;;;5033559;28;20757;-67
2022/09/29 05:51:34;;;;;;;0.50;0.50;;;7.60;99.90;8.00;99813.00;;;;5032584;28;20268;-68
2022/09/29 05:54:05;;;;;;;0.60;0.60;;;7.60;99.90;8.10;99824.00;;;;5032534;28;20636;-68
2022/09/29 05:56:31;;;;;;;0.60;0.60;;;7.80;99.90;8.00;99813.00;;;;5032347;28;20181;-67
2022/09/29 05:58:57;;;;;;;0.60;0.60;;;7.70;99.90;7.90;99817.00;;;;5033748;28;20626;-68
2022/09/29 06:01:26;;;;;;;0.70;0.70;;;7.70;99.90;7.80;99809.00;;;;5049067;28;20190;-68
2022/09/29 06:03:56;;;;;;;0.60;0.60;;;7.60;99.90;7.80;99769.00;;;;5048788;28;20623;-68
2022/09/29 06:06:25;;;;;;;0.60;0.60;;;7.60;99.90;8.00;99825.00;;;;5032436;28;20254;-68
2022/09/29 06:08:57;;;;;;;0.70;0.70;;;7.70;99.90;8.10;99831.00;;;;5032458;28;20207;-68
2022/09/29 06:11:30;;;;;;;0.60;0.60;;;7.80;99.90;8.00;99829.00;;;;5032253;28;20188;-68
2022/09/29 06:14:01;;;;;;;0.70;0.70;;;7.70;99.90;8.70;99838.00;;;;5032283;28;20664;-67
2022/09/29 06:16:30;;;;;;;0.80;0.80;;;7.90;99.90;8.60;99838.00;;;;5032325;28;20656;-69
2022/09/29 06:18:58;;;;;;;0.70;0.70;;;8.10;99.90;9.30;99837.00;;;;5031767;28;20278;-68
2022/09/29 06:21:26;;;;;;;0.90;0.90;;;8.50;99.90;8.70;99827.00;;;;5032141;28;20190;-68
2022/09/29 06:23:57;;;;;;;0.90;0.90;;;8.30;99.90;8.60;99841.00;;;;5032044;28;20634;-68
2022/09/29 06:26:25;;;;;;;0.80;0.80;;;8.30;99.90;9.00;99841.00;;;;5032280;28;20186;-68
2022/09/29 06:28:53;;;;;;;0.90;0.90;;;8.30;99.90;8.70;99849.00;;;;5033295;28;20257;-68
2022/09/29 06:31:26;;;;;;;0.80;0.80;;;8.30;99.90;8.80;99847.00;;;;5031866;28;20594;-68
2022/09/29 06:33:58;;;;;;;0.90;0.90;;;8.40;99.90;8.90;99846.00;;;;5048942;28;20181;-69
2022/09/29 06:39:24;;;;;;;0.80;0.80;;;8.60;99.90;9.60;99865.00;;;;5032200;28;20186;-69
2022/09/29 06:41:54;;;;;;;0.80;0.80;;;8.90;99.90;10.10;99864.00;;;;5032074;28;20175;-69
2022/09/29 06:44:23;;;;;;;0.70;0.70;;;9.30;99.90;10.30;99865.00;;;;5032913;28;20173;-68
2022/09/29 06:46:50;;;;;;;2.40;2.30;;;9.60;99.90;10.30;99812.00;;;;5031665;28;20270;-68
2022/09/29 06:49:16;;;;;;;1.17;1.17;;;9.70;99.90;9.30;99860.00;;;;5032234;28;20610;-68
2022/09/29 06:51:45;;;;;;;0.97;0.97;;;9.30;99.90;9.20;99871.00;;;;5032993;28;20203;-68
2022/09/29 06:54:19;;;;;;;1.10;1.10;;;9.10;99.90;9.80;99864.00;;;;5034364;28;20183;-68
2022/09/29 06:56:50;;;;;;;0.80;0.80;;;9.20;99.90;9.70;99864.00;;;;5035868;28;20526;-68
2022/09/29 06:59:16;;;;;;;0.60;0.60;;;9.40;99.90;9.80;99864.00;;;;5036073;28;20183;-68
2022/09/29 07:01:42;;;;;;;1.77;1.67;;;9.50;99.90;10.30;99857.00;;;;5035279;28;20273;-69
2022/09/29 07:04:14;;;;;;;1.10;1.10;;;9.80;99.90;10.30;99866.00;;;;5035772;28;20268;-69
2022/09/29 07:06:44;;;;;;;0.80;0.80;;;9.90;99.90;11.20;99880.00;;;;5036692;28;20172;-69
2022/09/29 07:09:16;;;;;;;1.13;1.03;;;10.40;99.90;12.30;99885.00;;;;5035538;28;20274;-68
2022/09/29 07:11:49;;;;;;;1.00;1.00;;;11.20;99.90;12.90;99889.00;;;;5035537;28;20197;-68
2022/09/29 07:14:21;;;;;;;0.90;0.90;;;12.00;99.90;12.50;99840.00;;;;5035127;28;20197;-68
2022/09/29 07:16:48;;;;;;;0.60;0.60;;;11.90;99.90;12.40;99890.00;;;;5035145;28;20184;-68
2022/09/29 07:19:19;;;;;;;0.50;0.50;;;12.00;99.90;13.00;99896.00;;;;5032908;28;20212;-68
2022/09/29 07:21:49;;;;;;;0.50;0.50;;;12.40;99.90;14.20;99902.00;;;;5058211;28;20195;-69
2022/09/29 07:24:20;;;;;;;0.40;0.40;;;13.00;99.90;16.20;99917.00;;;;5035895;28;20322;-69
2022/09/29 07:26:46;;;;;;;0.30;0.30;;;14.50;99.90;16.00;99915.00;;;;5018740;28;20252;-69
2022/09/29 07:29:15;;;;;;;0.40;0.40;;;14.80;99.90;17.20;99947.00;;;;5036256;28;20624;-69
2022/09/29 07:31:50;;;;;;;0.40;0.40;;;15.80;99.90;16.50;99973.00;;;;5034745;28;20586;-69
2022/09/29 07:34:24;;;;;;;0.30;0.30;;;16.00;99.90;15.30;99958.00;;;;5033649;28;20196;-69
2022/09/29 07:36:58;;;;;;;0.30;0.30;;;15.40;99.90;18.10;99975.00;;;;5024954;28;20185;-69
2022/09/29 07:39:26;;;;;;;0.30;0.30;;;16.30;99.90;19.30;99963.00;;;;5032805;28;20189;-69
2022/09/29 07:41:53;;;;;;;0.30;0.30;;;17.50;99.90;19.00;100006.00;;;;5035963;28;20193;-69
2022/09/29 07:44:37;;;;;;;2.28;2.17;;;17.80;99.90;16.00;99987.00;;;;5014784;28;20195;-69
2022/09/29 07:47:05;;;;;;;0.20;0.20;;;16.60;99.90;16.80;99968.00;;;;5016195;28;20325;-69
2022/09/29 07:50:06;;;;;;;0.60;0.60;;;16.20;99.90;15.60;99962.00;;;;5015372;28;20637;-69
2022/09/29 07:53:10;;;;;;;0.20;0.20;;;15.30;99.90;16.10;99987.00;;;;5016102;28;20252;-69
2022/09/29 07:56:09;;;;;;;0.20;0.20;;;15.60;99.90;16.50;99977.00;;;;5047113;28;20298;-69
2022/09/29 07:58:38;;;;;;;0.28;0.28;;;15.40;99.90;18.70;100009.00;;;;5021910;28;20189;-69
2022/09/29 08:01:27;;;;;;;0.30;0.30;;;16.90;99.90;17.10;100013.00;;;;5018488;28;20228;-69
2022/09/29 08:03:57;;;;;;;0.45;0.45;;;16.60;99.90;16.00;99997.00;;;;5011442;28;20190;-69
2022/09/29 08:06:27;;;;;;;0.28;0.28;;;16.10;99.90;15.20;99972.00;;;;5014913;28;20179;-70
2022/09/29 08:08:57;;;;;;;0.27;0.27;;;15.30;99.90;15.40;99958.00;;;;5014987;28;20186;-69
2022/09/29 08:11:26;;;;;;;0.20;0.20;;;15.10;99.90;15.30;99970.00;;;;5014956;28;20184;-69
2022/09/29 08:13:52;;;;;;;0.20;0.20;;;14.90;99.90;15.70;99977.00;;;;5022399;28;20190;-70
2022/09/29 08:16:28;;;;;;;0.20;0.20;;;15.10;99.90;14.80;99973.00;;;;5035298;28;20178;-69
2022/09/29 08:19:00;;;;;;;0.73;0.73;;;14.70;99.90;15.80;99974.00;;;;5034746;28;20544;-69
2022/09/29 08:21:36;;;;;;;0.27;0.27;;;14.90;99.90;17.70;99997.00;;;;5034196;28;20178;-69
2022/09/29 08:24:08;;;;;;;0.45;0.45;;;16.00;99.90;19.10;100035.00;;;;5034242;28;20635;-71
2022/09/29 08:26:36;;;;;;;0.30;0.30;;;17.30;99.90;17.60;100048.00;;;;5034047;28;20232;-74
2022/09/29 08:29:06;;;;;;;0.20;0.20;;;17.40;99.90;18.50;100050.00;;;;5034012;28;20185;-71
2022/09/29 08:31:39;;;;;;;0.95;0.95;;;17.30;99.90;17.50;100010.00;;;;5017726;28;20550;-72
2022/09/29 08:34:23;;;;;;;3.20;2.40;;;17.10;99.90;16.70;100029.00;;;;5034241;28;20183;-70
2022/09/29 08:36:49;;;;;;;0.40;0.40;;;16.60;99.90;15.80;100013.00;;;;5034069;28;20181;-70
2022/09/29 08:39:15;;;;;;;0.60;0.60;;;15.60;99.90;15.70;100016.00;;;;5034444;28;20533;-71
2022/09/29 08:41:52;;;;;;;0.20;0.20;;;15.50;99.90;16.60;100034.00;;;;5033614;28;20182;-70
2022/09/29 08:44:40;;;;;;;0.20;0.20;;;15.80;99.90;16.60;100047.00;;;;5034126;28;20731;-70
2022/09/29 08:47:29;;;;;;;0.27;0.27;;;15.90;99.90;17.80;100012.00;;;;5033604;28;20190;-71
2022/09/29 08:50:05;;;;;;;0.20;0.20;;;16.60;99.90;18.20;100075.00;;;;5034084;28;20202;-71
2022/09/29 08:52:38;;;;;;;0.23;0.23;;;16.90;99.90;16.90;100069.00;;;;5017203;28;20203;-72
2022/09/29 08:55:16;;;;;;;0.20;0.20;;;17.00;99.90;16.40;100058.00;;;;5033539;28;20188;-70
2022/09/29 08:58:16;;;;;;;0.88;0.82;;;16.50;99.90;19.10;100091.00;;;;5034570;28;20196;-69
2022/09/29 09:01:41;;;;;;;0.10;0.10;;;17.30;99.90;19.00;100099.00;;;;5035148;28;20264;-70
2022/09/29 09:04:33;;;;;;;0.13;0.13;;;17.60;99.90;18.30;100081.00;;;;5033899;28;20281;-70
2022/09/29 09:07:23;;;;;;;0.57;0.57;;;18.20;99.90;18.10;100052.00;;;;5034840;28;20184;-69
2022/09/29 09:10:28;;;;;;;0.10;0.10;;;17.40;99.90;19.30;100126.00;;;;5034548;28;20194;-70
2022/09/29 09:13:15;;;;;;;39.30;8.60;;;18.10;99.90;16.90;100113.00;;;;5023235;28;20305;-71
2022/09/29 09:16:25;;;;;;;1.40;1.33;;;17.50;99.90;16.40;100069.00;;;;5033693;28;20197;-70
2022/09/29 09:19:54;;;;;;;0.83;0.80;;;15.90;99.90;17.90;100092.00;;;;5034295;28;20184;-69
2022/09/29 09:22:33;;;;;;;0.10;0.10;;;16.60;99.90;17.90;100076.00;;;;5026741;28;20201;-71
2022/09/29 09:25:11;;;;;;;0.20;0.20;;;17.10;99.90;18.90;100123.00;;;;5023025;28;20185;-71
2022/09/29 09:27:43;;;;;;;0.87;0.87;;;17.70;99.90;17.60;100131.00;;;;5013471;28;20183;-71
2022/09/29 09:30:20;;;;;;;0.10;0.10;;;17.20;99.90;18.50;100087.00;;;;5013477;28;20213;-71
2022/09/29 09:33:00;;;;;;;1.93;1.33;;;17.40;99.90;17.70;100088.00;;;;5013058;28;20218;-70
2022/09/29 09:36:05;;;;;;;0.50;0.50;;;17.10;99.90;16.80;100130.00;;;;5046256;28;20270;-71
2022/09/29 09:39:10;;;;;;;0.40;0.30;;;16.90;99.90;16.40;100121.00;;;;5027536;28;20200;-71
2022/09/29 09:41:49;;;;;;;0.20;0.20;;;16.60;99.90;18.00;100129.00;;;;5012942;28;20708;-70
2022/09/29 09:44:26;;;;;;;0.10;0.10;;;17.00;99.90;19.30;100139.00;;;;5013025;28;20628;-70
2022/09/29 09:47:14;;;;;;;2.03;0.73;;;17.70;99.90;17.30;100140.00;;;;5012957;28;20290;-70
2022/09/29 09:49:51;;;;;;;1.30;0.63;;;17.30;99.90;18.20;100132.00;;;;5012707;28;20675;-70
2022/09/29 09:52:41;;;;;;;0.10;0.10;;;17.00;99.90;20.00;100151.00;;;;5013174;28;20244;-70
2022/09/29 09:55:24;;;;;;;0.10;0.10;;;18.10;99.90;20.70;100151.00;;;;5012492;28;20185;-70
2022/09/29 09:58:29;;;;;;;0.10;0.10;;;19.30;99.90;21.20;100126.00;;;;5014592;28;20193;-69
2022/09/29 10:01:11;;;;;;;0.10;0.10;;;19.80;99.90;21.80;100147.00;;;;5032601;28;20190;-67
2022/09/29 10:03:46;;;;;;;0.30;0.30;;;20.30;99.90;20.00;100180.00;;;;5033613;28;20198;-70
2022/09/29 10:06:14;;;;;;;1.50;1.40;;;19.60;99.90;18.10;100177.00;;;;5023435;28;20268;-67
2022/09/29 10:08:49;;;;;;;1.67;0.73;;;17.90;99.90;19.30;100152.00;;;;5013585;28;20326;-66
2022/09/29 10:11:35;;;;;;;0.43;0.20;;;18.20;99.90;20.30;100151.00;;;;5029141;28;20200;-67
2022/09/29 10:14:33;;;;;;;0.10;0.10;;;18.80;99.90;21.00;100141.00;;;;5045607;28;20186;-67
2022/09/29 10:17:16;;;;;;;0.10;0.10;;;19.50;99.90;21.00;100143.00;;;;5028478;28;20183;-68
2022/09/29 10:20:31;;;;;;;0.20;0.20;;;19.90;99.90;20.80;100154.00;;;;5016193;28;20548;-67
2022/09/29 10:34:16;;;;;;;0.10;0.10;;;19.60;99.90;21.30;100176.00;;;;5070622;28;20601;-67
2022/09/29 10:37:40;;;;;;;0.20;0.20;;;19.90;99.90;19.00;100196.00;;;;5066114;28;20271;-67
2022/09/29 10:40:41;;;;;;;0.10;0.10;;;18.80;99.90;20.50;100186.00;;;;5028303;28;20183;-67
2022/09/29 10:43:47;;;;;;;0.10;0.10;;;19.10;99.90;21.00;100177.00;;;;5012093;28;20182;-67
2022/09/29 10:47:06;;;;;;;0.35;0.35;;;20.00;99.90;20.50;100194.00;;;;5011486;28;20186;-67
2022/09/29 10:49:32;;;;;;;0.10;0.10;;;19.40;99.90;21.00;100185.00;;;;5045708;28;20179;-67
2022/09/29 10:52:08;;;;;;;0.10;0.10;;;19.60;99.90;18.80;100181.00;;;;5045985;28;20608;-67
2022/09/29 10:54:58;;;;;;;0.10;0.10;;;19.00;99.90;20.20;100210.00;;;;5045557;28;20419;-68
2022/09/29 10:57:38;;;;;;;0.10;0.10;;;18.80;99.90;20.70;100200.00;;;;5045648;28;20669;-67
2022/09/29 11:00:29;;;;;;;0.10;0.10;;;19.30;99.90;21.40;100180.00;;;;5030365;28;20178;-67
2022/09/29 11:03:14;;;;;;;0.10;0.10;;;20.20;99.90;22.20;100179.00;;;;5045490;28;20198;-68
2022/09/29 11:06:24;;;;;;;0.10;0.10;;;20.80;99.90;21.20;100200.00;;;;5045344;28;20159;-68
2022/09/29 11:09:19;;;;;;;0.10;0.10;;;20.60;99.90;21.70;100154.00;;;;5045156;28;20705;-67
2022/09/29 11:12:14;;;;;;;0.30;0.30;;;20.50;99.90;21.00;100209.00;;;;5029555;28;20203;-68
2022/09/29 11:14:55;;;;;;;0.10;0.10;;;20.10;99.90;21.00;100209.00;;;;5043558;28;20257;-68
2022/09/29 11:17:55;;;;;;;0.28;0.28;;;19.80;99.90;20.10;100230.00;;;;5045080;28;20189;-67
2022/09/29 11:20:31;;;;;;;0.10;0.10;;;19.30;99.90;17.80;100262.00;;;;5028679;28;20280;-67
2022/09/29 11:23:53;;;;;;;0.10;0.10;;;17.60;99.90;18.50;100268.00;;;;5044960;28;20262;-67
2022/09/29 11:26:32;;;;;;;0.23;0.23;;;17.40;99.90;17.80;100271.00;;;;5028881;28;20521;-68
2022/09/29 11:29:41;;;;;;;0.10;0.10;;;17.30;99.90;18.20;100272.00;;;;5029805;28;20208;-67
2022/09/29 11:32:45;;;;;;;0.10;0.10;;;17.20;99.90;18.70;100267.00;;;;5029348;28;20216;-67
2022/09/29 11:36:17;;;;;;;0.10;0.10;;;17.20;99.90;18.30;100256.00;;;;5045280;28;20183;-67
2022/09/29 11:39:44;;;;;;;0.40;0.40;;;17.30;99.90;18.60;100244.00;;;;5011116;28;20301;-67
2022/09/29 11:43:15;;;;;;;0.10;0.10;;;17.10;99.90;19.10;100239.00;;;;5039352;28;20698;-67
2022/09/29 11:46:16;;;;;;;0.10;0.10;;;17.60;99.90;19.80;100222.00;;;;4993823;28;20201;-67
2022/09/29 11:49:26;;;;;;;0.10;0.10;;;18.50;99.90;21.00;100173.00;;;;5005284;28;20213;-67
2022/09/29 11:52:37;;;;;;;0.10;0.10;;;19.40;99.90;20.80;100178.00;;;;5029534;28;20679;-67
2022/09/29 11:55:48;;;;;;;0.10;0.10;;;20.00;99.90;19.80;100257.00;;;;5036049;28;20643;-67
2022/09/29 11:59:33;;;;;;;0.10;0.10;;;18.90;99.90;20.40;100234.00;;;;5035801;28;20213;-67
2022/09/29 12:02:48;;;;;;;0.10;0.10;;;19.30;99.90;18.20;100258.00;;;;5035392;28;20650;-66
2022/09/29 12:05:54;;;;;;;0.10;0.10;;;18.50;99.90;19.90;100266.00;;;;5033203;28;20277;-67
2022/09/29 12:08:39;;;;;;;0.10;0.10;;;18.20;99.90;19.70;100256.00;;;;5033387;28;20182;-67